Latest Weather Observations for Tewantin

IDQ60801

Issued at 10:35 am EST Thursday 17 April 2014 (issued every 30 minutes, with the page automatically refreshed every 10 minutes)

About weather observations | Map of weather stations | Latest weather observations for QLD | Other Formats
Station Details ID: 040908 Name: TEWANTIN RSL PARK Lat: -26.39 Lon: 153.04 Height: 6.4 m
Data from the previous 72 hours. | See also: Recent months at Tewantin
Date/Time
EST
Temp
°C
App
Temp
°C
Dew
Point
Rel
Hum
%
Delta-T
°C
Wind Press
QNH
hPa
Press
MSL
hPa
Rain
since 9 am
mm
Dir
 
Spd
km/h
Gust
km/h
Spd
kts
Gust
kts
17/10:30am 25.2 24.5 13.1 47 7.0 E 9 15 5 8 1017.6 - 0.0
17/10:00am 24.6 24.5 13.8 51 6.3 ESE 7 13 4 7 1017.8 - 0.0
17/09:30am 24.5 25.0 14.9 55 5.7 SSE 6 9 3 5 1018.0 - 0.0
17/09:00am 23.8 23.2 13.4 52 6.0 S 9 13 5 7 1018.0 1018.0 0.0
17/08:30am 22.9 23.4 15.0 61 4.7 S 6 9 3 5 1018.0 - 0.0
17/08:00am 21.3 23.4 16.3 73 3.0 CALM 0 6 0 3 1017.9 - 0.0
17/07:30am 19.9 21.2 16.2 79 2.2 WNW 4 7 2 4 1017.7 - 0.0
17/07:00am 18.7 21.0 16.7 88 1.2 CALM 0 6 0 3 1017.3 - 0.0
17/06:30am 17.2 19.4 16.4 95 0.5 CALM 0 0 0 0 1017.1 - 0.0
17/06:00am 16.8 18.7 15.8 94 0.6 WNW 0 0 0 0 1016.8 1016.8 0.0
17/05:30am 17.2 19.3 16.2 94 0.6 CALM 0 0 0 0 1016.6 - 0.0
17/05:00am 17.4 19.6 16.4 94 0.6 CALM 0 0 0 0 1016.4 - 0.0
17/04:30am 17.4 19.6 16.4 94 0.6 CALM 0 0 0 0 1016.1 - 0.0
17/04:00am 17.7 19.9 16.6 93 0.7 CALM 0 0 0 0 1015.9 - 0.0
17/03:30am 18.1 20.4 16.8 92 0.8 CALM 0 4 0 2 1015.9 - 0.0
17/03:00am 17.8 20.1 16.7 93 0.7 CALM 0 0 0 0 1015.9 1015.9 0.0
17/02:30am 17.7 19.9 16.4 92 0.8 CALM 0 6 0 3 1015.8 - 0.0
17/02:00am 17.9 19.8 16.6 92 0.8 WSW 2 6 1 3 1015.7 - 0.0
17/01:30am 18.0 20.1 16.3 90 1.0 CALM 0 6 0 3 1015.9 - 0.0
17/01:00am 18.2 20.4 16.4 89 1.1 CALM 0 0 0 0 1016.2 - 0.0
17/12:30am 18.7 21.0 16.8 89 1.1 CALM 0 0 0 0 1016.2 - 0.0
17/12:00am 18.6 21.1 17.3 92 0.8 SSW 0 0 0 0 1016.3 1016.3 0.0
 
Date/Time
EST
Temp
°C
App
Temp
°C
Dew
Point
Rel
Hum
%
Delta-T
°C
Wind Press
QNH
hPa
Press
MSL
hPa
Rain
since 9 am
mm
Dir
 
Spd
km/h
Gust
km/h
Spd
kts
Gust
kts
16/11:30pm 18.2 20.0 16.5 90 1.0 W 2 6 1 3 1016.4 - 0.0
16/11:00pm 18.8 21.2 16.9 89 1.1 CALM 0 0 0 0 1016.4 - 0.0
16/10:30pm 18.6 20.8 16.6 88 1.2 CALM 0 0 0 0 1016.5 - 0.0
16/10:00pm 18.8 21.0 16.4 86 1.4 CALM 0 0 0 0 1016.5 - 0.0
16/09:30pm 19.1 20.3 16.9 87 1.3 SW 6 7 3 4 1016.5 - 0.0
16/09:00pm 19.2 21.3 16.2 83 1.8 CALM 0 0 0 0 1016.4 1016.4 0.0
16/08:30pm 19.6 21.0 16.4 82 1.9 WSW 4 7 2 4 1016.1 - 0.0
16/08:00pm 20.1 22.1 15.9 77 2.5 SSW 0 0 0 0 1015.8 - 0.0
16/07:30pm 20.5 21.5 16.3 77 2.5 NW 6 7 3 4 1015.3 - 0.0
16/07:00pm 21.1 23.1 16.1 73 3.0 CALM 0 0 0 0 1015.2 - 0.0
16/06:30pm 21.6 23.3 15.2 67 3.8 CALM 0 0 0 0 1014.8 - 0.0
16/06:00pm 21.9 23.6 15.3 66 3.9 ESE 0 6 0 3 1014.5 1014.5 0.0
16/05:30pm 22.3 22.8 14.9 63 4.4 E 6 9 3 5 1014.0 - 0.0
16/05:00pm 23.0 23.0 15.1 61 4.7 E 9 11 5 6 1014.0 - 0.0
16/04:30pm 23.1 22.7 15.2 61 4.7 ESE 11 17 6 9 1013.8 - 0.0
16/04:00pm 23.6 23.2 15.1 59 5.1 E 11 19 6 10 1013.5 - 0.0
16/03:30pm 23.7 22.7 14.7 57 5.3 E 13 17 7 9 1013.5 - 0.0
16/03:00pm 24.1 23.7 15.3 58 5.3 ESE 11 15 6 8 1013.5 1013.5 0.0
16/02:30pm 24.5 24.1 16.2 60 5.1 E 13 20 7 11 1013.5 - 0.0
16/02:00pm 24.4 24.0 15.1 56 5.6 E 11 17 6 9 1013.6 - 0.0
16/01:30pm 24.0 23.0 14.7 56 5.5 ESE 13 19 7 10 1013.9 - 0.0
16/01:00pm 23.8 22.4 14.5 56 5.5 ESE 15 22 8 12 1014.0 - 0.0
16/12:30pm 24.0 23.3 13.2 50 6.3 ESE 9 17 5 9 1014.4 - 0.0
16/12:00pm 24.1 22.9 13.9 53 6.0 ESE 13 20 7 11 1015.0 1015.0 0.0
16/11:30am 24.0 22.6 13.5 52 6.1 ESE 13 19 7 10 1015.4 - 0.0
16/11:00am 24.5 24.0 12.8 48 6.8 SE 7 13 4 7 1015.7 - 0.0
16/10:30am 24.5 24.0 13.7 51 6.3 SE 9 15 5 8 1016.1 - 0.0
16/10:00am 24.2 22.9 12.5 48 6.7 SSW 11 19 6 10 1016.6 - 0.0
16/09:30am 23.7 22.7 13.3 52 6.0 S 11 20 6 11 1016.7 - 0.0
16/09:00am 22.8 21.7 12.1 51 6.0 S 9 17 5 9 1016.7 1016.7 0.0
16/08:30am 22.2 21.1 13.0 56 5.3 S 11 17 6 9 1016.6 - 0.0
16/08:00am 21.4 21.2 13.6 61 4.5 SSW 7 13 4 7 1016.4 - 0.0
16/07:30am 18.9 20.4 14.6 76 2.5 CALM 0 0 0 0 1016.1 - 0.0
16/07:00am 17.6 19.1 14.7 83 1.7 CALM 0 0 0 0 1015.7 - 0.0
16/06:30am 15.9 17.3 14.3 90 0.9 CALM 0 0 0 0 1015.5 - 0.0
16/06:00am 15.7 17.0 14.1 90 0.9 CALM 0 6 0 3 1015.2 1015.2 0.0
16/05:30am 16.2 17.5 14.2 88 1.1 CALM 0 4 0 2 1014.9 - 0.0
16/05:00am 16.3 17.7 14.5 89 1.0 CALM 0 0 0 0 1014.8 - 0.0
16/04:30am 16.1 17.5 14.3 89 1.0 CALM 0 0 0 0 1014.5 - 0.0
16/04:00am 16.2 17.7 14.7 91 0.9 CALM 0 0 0 0 1014.5 - 0.0
16/03:30am 16.5 17.7 15.0 91 0.9 SW 2 6 1 3 1014.4 - 0.0
16/03:00am 16.6 17.9 14.2 86 1.4 CALM 0 0 0 0 1014.6 1014.6 0.0
16/02:30am 16.9 18.3 14.4 85 1.4 CALM 0 0 0 0 1014.5 - 0.0
16/02:00am 17.0 18.5 14.6 86 1.4 CALM 0 0 0 0 1014.8 - 0.0
16/01:30am 17.2 18.0 14.8 86 1.4 S 4 7 2 4 1015.1 - 0.0
16/01:00am 17.6 19.0 14.5 82 1.8 CALM 0 0 0 0 1015.1 - 0.0
16/12:30am 18.1 19.3 14.8 81 1.9 SSW 2 6 1 3 1015.3 - 0.0
16/12:00am 18.6 19.1 15.5 82 1.8 SSW 7 11 4 6 1015.5 1015.5 0.0
 
Date/Time
EST
Temp
°C
App
Temp
°C
Dew
Point
Rel
Hum
%
Delta-T
°C
Wind Press
QNH
hPa
Press
MSL
hPa
Rain
since 9 am
mm
Dir
 
Spd
km/h
Gust
km/h
Spd
kts
Gust
kts
15/11:30pm 18.9 19.0 15.6 81 1.9 SSW 9 13 5 7 1015.7 - 0.0
15/11:00pm 19.2 19.5 15.9 81 2.0 SSW 9 15 5 8 1015.9 - 0.0
15/10:30pm 19.2 19.5 16.1 82 1.8 SSW 9 15 5 8 1016.0 - 0.0
15/10:00pm 18.9 20.1 15.9 83 1.8 SSW 4 7 2 4 1015.8 - 0.0
15/09:30pm 19.5 20.4 16.2 81 2.0 SSW 6 7 3 4 1015.7 - 0.0
15/09:00pm 19.9 20.3 16.3 80 2.2 S 9 13 5 7 1015.8 1015.8 0.0
15/08:30pm 19.8 20.6 16.3 80 2.1 S 7 9 4 5 1015.9 - 0.0
15/08:00pm 20.2 21.2 16.4 79 2.3 SSW 6 9 3 5 1015.8 - 0.0
15/07:30pm 20.5 21.4 16.5 78 2.4 SSW 7 11 4 6 1015.4 - 0.0
15/07:00pm 20.7 22.2 15.7 73 3.0 SSW 2 6 1 3 1015.2 - 0.0
15/06:30pm 21.4 21.7 15.9 71 3.3 S 9 13 5 7 1014.8 - 0.0
15/06:00pm 21.9 22.3 16.2 70 3.4 S 9 15 5 8 1014.6 1014.6 0.0
15/05:30pm 22.2 21.7 16.0 68 3.7 S 13 20 7 11 1014.2 - 0.0
15/05:00pm 22.7 22.3 16.3 67 3.9 S 13 20 7 11 1013.9 - 0.0
15/04:30pm 23.2 23.1 17.0 68 3.8 SSE 13 22 7 12 1013.8 - 0.0
15/04:00pm 23.0 21.7 15.8 64 4.3 SSE 17 33 9 18 1013.7 - 0.0
15/03:30pm 23.6 22.3 15.9 62 4.7 SSE 17 26 9 14 1013.6 - 0.0
15/03:00pm 23.4 22.0 15.5 61 4.7 SSE 17 28 9 15 1013.5 1013.5 0.0
15/02:30pm 24.6 24.2 16.1 59 5.2 SSE 13 22 7 12 1013.2 - 0.0
15/02:00pm 24.8 24.3 17.0 62 4.8 SSE 15 24 8 13 1013.2 - 0.0
15/01:30pm 24.0 22.2 15.5 59 5.1 SSE 19 28 10 15 1013.4 - 0.0
15/01:00pm 24.3 22.6 16.3 61 4.9 SSE 20 33 11 18 1013.5 - 0.0
15/12:30pm 24.5 21.8 15.7 58 5.3 S 24 41 13 22 1013.8 - 0.0
15/12:00pm 24.6 22.7 16.6 61 4.9 SSE 22 43 12 23 1013.9 1013.9 0.0
15/11:30am 24.2 21.3 16.2 61 4.9 S 26 39 14 21 1014.2 - 0.0
15/11:00am 24.5 23.0 16.7 61 4.8 SSE 20 39 11 21 1014.2 - 0.0
15/10:30am 24.2 21.6 15.9 59 5.0 S 24 39 13 21 1014.3 - 0.0
15/10:00am 23.9 22.0 15.7 60 5.0 S 20 32 11 17 1015.0 - 0.0
15/09:30am 23.6 21.4 15.9 62 4.7 S 22 37 12 20 1015.2 - 0.0
15/09:00am 23.1 21.2 15.7 63 4.5 S 20 33 11 18 1015.2 1015.2 1.0
15/08:30am 23.0 21.4 16.1 65 4.2 S 19 32 10 17 1015.2 - 1.0
15/08:00am 22.1 20.4 15.7 67 3.8 S 19 30 10 16 1015.2 - 1.0
15/07:30am 21.5 20.6 15.8 70 3.4 SSW 15 28 8 15 1014.9 - 1.0
15/07:00am 20.8 20.3 15.8 73 3.0 SSW 13 24 7 13 1014.6 - 1.0
15/06:30am 20.5 19.5 15.7 74 2.9 S 15 26 8 14 1014.4 - 1.0
15/06:00am 20.5 18.9 16.1 76 2.6 S 19 32 10 17 1014.0 1014.0 1.0
15/05:30am 20.5 19.1 16.5 78 2.4 S 19 33 10 18 1013.4 - 1.0
15/05:00am 20.4 19.9 16.8 80 2.2 S 15 28 8 15 1013.0 - 1.0
15/04:30am 20.2 19.3 16.8 81 2.1 S 17 28 9 15 1012.7 - 1.0
15/04:00am 20.3 19.7 16.7 80 2.2 S 15 24 8 13 1012.5 - 1.0
15/03:30am 20.3 19.3 16.5 79 2.3 S 17 24 9 13 1012.4 - 1.0
15/03:00am 20.4 19.5 16.8 80 2.2 S 17 24 9 13 1012.4 1012.4 1.0
15/02:30am 20.5 20.4 16.9 80 2.2 SSW 13 24 7 13 1012.5 - 1.0
15/02:00am 21.0 20.5 17.0 78 2.4 S 15 26 8 14 1012.3 - 1.0
15/01:30am 21.1 20.3 17.1 78 2.4 S 17 28 9 15 1012.3 - 1.0
15/01:00am 21.2 20.0 17.0 77 2.6 S 19 28 10 15 1012.3 - 1.0
15/12:30am 21.4 20.3 17.2 77 2.6 S 19 30 10 16 1012.5 - 1.0
15/12:00am 21.6 20.8 17.0 75 2.8 S 17 28 9 15 1012.6 1012.6 1.0
 
Date/Time
EST
Temp
°C
App
Temp
°C
Dew
Point
Rel
Hum
%
Delta-T
°C
Wind Press
QNH
hPa
Press
MSL
hPa
Rain
since 9 am
mm
Dir
 
Spd
km/h
Gust
km/h
Spd
kts
Gust
kts
14/11:30pm 21.7 20.3 16.9 74 2.9 S 20 32 11 17 1012.6 - 1.0
14/11:00pm 22.9 21.1 16.0 65 4.2 SSE 20 37 11 20 1012.8 - 1.0
14/10:30pm 23.0 21.2 16.1 65 4.2 SSE 20 37 11 20 1013.1 - 1.0
14/10:00pm 23.2 21.6 16.0 64 4.4 SSE 19 33 10 18 1013.2 - 1.0
14/09:30pm 23.4 20.9 16.2 64 4.4 SSE 24 39 13 21 1013.1 - 1.0
14/09:14pm 23.4 20.0 15.7 62 4.6 SSE 28 48 15 26 1013.0 - 1.0
14/09:00pm 23.3 20.8 16.1 64 4.4 SSE 24 37 13 20 1013.0 1013.0 1.0
14/08:30pm 23.3 20.7 15.9 63 4.5 SSE 24 44 13 24 1012.9 - 1.0
14/08:22pm 23.4 20.2 16.2 64 4.4 SSE 28 50 15 27 1012.8 - 1.0
14/08:00pm 23.4 21.0 16.4 64 4.3 SSE 24 37 13 20 1012.6 - 1.0
14/07:30pm 23.5 20.8 16.5 65 4.3 SSE 26 46 14 25 1012.0 - 1.0
14/07:00pm 23.4 21.1 16.7 66 4.1 SSE 24 48 13 26 1011.6 - 1.0
14/06:30pm 23.3 21.9 17.1 68 3.8 SSE 20 39 11 21 1011.1 - 1.0
14/06:01pm 23.5 20.6 17.0 67 4.0 SSE 28 46 15 25 1010.5 - 1.0
14/06:00pm 23.5 21.0 17.0 67 4.0 SSE 26 46 14 25 1010.5 1010.5 1.0
14/05:30pm 23.5 21.1 17.3 68 3.8 SSE 26 48 14 26 1010.0 - 1.0
14/05:25pm 23.6 20.9 17.6 69 3.7 SSE 28 48 15 26 1009.9 - 1.0
14/05:00pm 23.0 21.2 17.9 73 3.2 SSE 24 43 13 23 1009.7 - 1.0
14/04:50pm 23.0 20.4 17.7 72 3.3 SSE 28 46 15 25 1009.8 - 1.0
14/04:30pm 23.2 21.7 18.5 75 3.0 SSE 24 52 13 28 1009.5 - 1.0
14/04:00pm 23.9 21.8 18.1 70 3.6 SSE 26 41 14 22 1009.1 - 1.0
14/03:30pm 23.4 21.8 18.3 73 3.2 SE 24 43 13 23 1009.0 - 1.0
14/03:00pm 23.6 22.2 18.9 75 3.0 SSE 24 39 13 21 1009.0 1009.0 1.0
14/02:30pm 23.6 22.6 18.9 75 3.0 SSE 22 43 12 23 1009.1 - 1.0
14/02:00pm 23.0 22.6 19.4 80 2.3 SSE 20 30 11 16 1009.3 - 1.0
14/01:30pm 22.0 22.3 20.3 90 1.1 SSE 19 33 10 18 1009.5 - 1.0
14/01:00pm 22.8 22.6 19.8 83 1.9 SSE 20 39 11 21 1009.6 - 0.8
14/12:30pm 22.8 22.3 19.0 79 2.4 SSE 20 39 11 21 1009.8 - 0.8
14/12:00pm 22.9 21.3 19.1 79 2.4 SE 26 46 14 25 1010.3 1010.3 0.8
14/11:30am 23.4 23.3 19.5 79 2.5 SSE 19 35 10 19 1010.8 - 0.8
14/11:00am 22.4 22.3 19.9 86 1.6 SSE 20 35 11 19 1011.3 - 0.8

Other Formats:

Comma delimited format used in spreadsheet applications
http://www.bom.gov.au/fwo/IDQ60801/IDQ60801.94570.axf

JavaScript Object Notation format (JSON) in row-major order
http://www.bom.gov.au/fwo/IDQ60801/IDQ60801.94570.json